createdAt,value
2022-10-11T00:01:39.719Z,85.06
2022-10-11T00:04:26.591Z,85.25
2022-10-11T00:07:13.426Z,85.42
2022-10-11T00:10:01.637Z,85.41
2022-10-11T00:12:48.644Z,85.46
2022-10-11T00:15:35.910Z,85.74
2022-10-11T00:18:23.441Z,85.82
2022-10-11T00:21:12.817Z,85.88
2022-10-11T00:24:00.234Z,85.90
2022-10-11T00:26:48.525Z,85.96
2022-10-11T00:29:35.377Z,85.93
2022-10-11T00:32:22.055Z,85.87
2022-10-11T00:35:09.758Z,86.04
2022-10-11T00:37:57.764Z,85.92
2022-10-11T00:40:44.459Z,85.64
2022-10-11T00:43:33.554Z,85.06
2022-10-11T00:46:30.059Z,85.15
2022-10-11T00:49:23.713Z,85.17
2022-10-11T00:52:18.225Z,85.14
2022-10-11T00:55:08.286Z,85.10
2022-10-11T00:57:56.845Z,85.09
2022-10-11T01:00:45.378Z,85.60
2022-10-11T01:03:33.678Z,85.69
2022-10-11T01:06:20.841Z,85.84
2022-10-11T01:09:07.971Z,85.87
2022-10-11T01:11:57.915Z,85.96
2022-10-11T01:15:09.342Z,86.07
2022-10-11T01:18:04.847Z,86.04
2022-10-11T01:21:00.275Z,86.33
2022-10-11T01:24:09.195Z,86.25
2022-10-11T01:27:39.559Z,86.35
2022-10-11T01:30:29.206Z,86.19
2022-10-11T01:33:32.306Z,85.96
2022-10-11T01:36:27.806Z,85.74
2022-10-11T01:39:20.118Z,85.22
2022-10-11T01:42:10.967Z,85.24
2022-10-11T01:45:00.084Z,85.27
2022-10-11T01:47:48.738Z,84.84
2022-10-11T01:50:41.006Z,84.97
2022-10-11T01:54:00.681Z,85.00
2022-10-11T01:57:15.676Z,85.16
2022-10-11T02:00:10.052Z,85.40
2022-10-11T02:03:13.298Z,85.62
2022-10-11T02:06:06.218Z,85.96
2022-10-11T02:08:57.180Z,85.99
2022-10-11T02:11:46.663Z,86.02
2022-10-11T02:14:38.180Z,86.21
2022-10-11T02:17:32.240Z,86.43
2022-10-11T02:20:24.093Z,86.26
2022-10-11T02:23:14.483Z,86.29
2022-10-11T02:26:04.933Z,86.18
2022-10-11T02:28:57.508Z,86.23
2022-10-11T02:31:46.289Z,86.31
2022-10-11T02:34:36.909Z,86.20
2022-10-11T02:37:33.791Z,85.75
2022-10-11T02:40:24.838Z,85.58
2022-10-11T02:43:17.596Z,85.39
2022-10-11T02:46:07.547Z,85.07
2022-10-11T02:48:55.588Z,85.33
2022-10-11T02:51:42.785Z,85.32
2022-10-11T02:54:30.828Z,85.01
2022-10-11T02:57:17.723Z,85.12
2022-10-11T03:00:06.052Z,85.27
2022-10-11T03:02:52.842Z,85.47
2022-10-11T03:05:41.601Z,85.62
2022-10-11T03:08:28.686Z,85.86
2022-10-11T03:11:16.669Z,86.10
2022-10-11T03:14:03.393Z,86.00
2022-10-11T03:16:51.524Z,86.02
2022-10-11T03:19:38.733Z,86.25
2022-10-11T03:22:25.663Z,86.48
2022-10-11T03:25:12.757Z,86.59
2022-10-11T03:28:02.765Z,86.66
2022-10-11T03:30:49.844Z,86.61
2022-10-11T03:33:36.560Z,86.58
2022-10-11T03:36:23.436Z,86.46
2022-10-11T03:39:10.271Z,86.12
2022-10-11T03:41:57.633Z,85.85
2022-10-11T03:44:45.502Z,85.80
2022-10-11T03:47:32.753Z,85.89
2022-10-11T03:50:19.774Z,85.25
2022-10-11T03:53:07.870Z,85.44
2022-10-11T03:55:55.578Z,85.61
2022-10-11T03:58:42.495Z,85.37
2022-10-11T04:01:30.744Z,85.30
2022-10-11T04:04:17.642Z,86.15
2022-10-11T04:07:04.734Z,85.81
2022-10-11T04:09:52.153Z,85.89
2022-10-11T04:12:39.494Z,86.33
2022-10-11T04:15:26.170Z,86.59
2022-10-11T04:18:14.324Z,86.69
2022-10-11T04:21:01.069Z,86.42
2022-10-11T04:23:48.037Z,86.30
2022-10-11T04:26:35.076Z,86.42
2022-10-11T04:29:22.005Z,86.28
2022-10-11T04:32:08.710Z,86.03
2022-10-11T04:34:57.208Z,86.64
2022-10-11T04:37:43.821Z,86.81
2022-10-11T04:40:30.724Z,86.30
2022-10-11T04:43:18.635Z,85.83
2022-10-11T04:46:06.401Z,85.55
2022-10-11T04:48:53.843Z,85.94
2022-10-11T04:51:41.919Z,85.61
2022-10-11T04:54:28.640Z,85.56
2022-10-11T04:57:15.281Z,85.81
2022-10-11T05:00:02.126Z,85.94
2022-10-11T05:02:49.082Z,85.92
2022-10-11T05:05:36.261Z,85.51
2022-10-11T05:08:24.973Z,85.85
2022-10-11T05:11:16.082Z,86.21
2022-10-11T05:14:03.145Z,86.09
2022-10-11T05:16:49.794Z,86.02
2022-10-11T05:19:36.612Z,86.09
2022-10-11T05:22:23.569Z,86.36
2022-10-11T05:25:11.994Z,86.55
2022-10-11T05:27:59.205Z,86.57
2022-10-11T05:30:45.902Z,86.90
2022-10-11T05:33:33.467Z,87.23
2022-10-11T05:36:20.053Z,86.86
2022-10-11T05:39:07.096Z,86.75
2022-10-11T05:41:55.498Z,86.84
2022-10-11T05:44:42.130Z,86.96
2022-10-11T05:47:28.716Z,86.96
2022-10-11T05:50:17.192Z,86.83
2022-10-11T05:53:05.849Z,86.41
2022-10-11T05:55:52.338Z,85.93
2022-10-11T05:58:40.898Z,85.80
2022-10-11T06:01:30.934Z,85.76
2022-10-11T06:04:19.180Z,85.36
2022-10-11T06:07:05.985Z,85.55
2022-10-11T06:09:52.580Z,85.80
2022-10-11T06:12:39.925Z,86.12
2022-10-11T06:15:28.283Z,85.39
2022-10-11T06:18:15.214Z,84.78
2022-10-11T06:21:02.239Z,85.84
2022-10-11T06:23:49.898Z,85.83
2022-10-11T06:26:36.822Z,85.66
2022-10-11T06:29:24.153Z,85.93
2022-10-11T06:32:13.401Z,85.95
2022-10-11T06:35:00.612Z,85.80
2022-10-11T06:37:47.158Z,85.46
2022-10-11T06:40:34.150Z,85.41
2022-10-11T06:43:21.340Z,85.27
2022-10-11T06:46:08.444Z,85.13
2022-10-11T06:48:57.621Z,84.93
2022-10-11T06:51:44.798Z,85.02
2022-10-11T06:54:31.837Z,85.13
2022-10-11T06:57:18.780Z,85.06
2022-10-11T07:00:10.318Z,85.16
2022-10-11T07:02:59.424Z,84.83
2022-10-11T07:05:47.978Z,84.74
2022-10-11T07:08:35.147Z,84.83
2022-10-11T07:11:23.487Z,85.12
2022-10-11T07:14:11.186Z,85.03
2022-10-11T07:16:58.105Z,84.58
2022-10-11T07:19:44.718Z,84.49
2022-10-11T07:22:32.939Z,84.89
2022-10-11T07:25:19.811Z,85.08
2022-10-11T07:28:06.670Z,85.17
2022-10-11T07:30:53.692Z,85.12
2022-10-11T07:33:41.000Z,84.94
2022-10-11T07:36:28.143Z,84.93
2022-10-11T07:39:16.357Z,84.88
2022-10-11T07:42:02.981Z,84.66
2022-10-11T07:44:49.960Z,84.79
2022-10-11T07:47:36.943Z,84.39
2022-10-11T07:50:24.050Z,84.32
2022-10-11T07:53:11.201Z,83.96
2022-10-11T07:56:03.131Z,83.72
2022-10-11T07:58:52.418Z,83.44
2022-10-11T08:01:39.517Z,83.13
2022-10-11T08:04:26.518Z,83.02
2022-10-11T08:07:13.405Z,82.87
2022-10-11T08:10:00.534Z,82.81
2022-10-11T08:12:49.651Z,82.71
2022-10-11T08:15:36.675Z,82.40
2022-10-11T08:18:23.917Z,82.26
2022-10-11T08:21:11.914Z,82.23
2022-10-11T08:23:59.145Z,81.61
2022-10-11T08:26:45.766Z,81.48
2022-10-11T08:29:34.191Z,81.02
2022-10-11T08:32:20.914Z,80.74
2022-10-11T08:35:08.166Z,80.27
2022-10-11T08:37:55.016Z,80.33
2022-10-11T08:40:47.588Z,79.98
2022-10-11T08:43:43.630Z,80.20
2022-10-11T08:46:35.059Z,79.43
2022-10-11T08:49:25.849Z,79.39
2022-10-11T08:52:16.194Z,79.08
2022-10-11T08:55:05.753Z,79.84
2022-10-11T08:57:55.832Z,78.78
2022-10-11T09:00:43.886Z,78.91
2022-10-11T09:03:43.188Z,78.03
2022-10-11T09:06:41.105Z,78.60
2022-10-11T09:09:45.698Z,78.58
2022-10-11T09:12:45.890Z,77.23
2022-10-11T09:15:23.173Z,76.10
2022-10-11T09:18:09.451Z,77.82
2022-10-11T09:20:52.966Z,76.92
2022-10-11T09:23:41.774Z,76.77
2022-10-11T09:26:15.712Z,75.93
2022-10-11T09:29:00.787Z,76.21
2022-10-11T09:31:29.806Z,76.73
2022-10-11T09:34:02.049Z,75.34
2022-10-11T09:36:37.910Z,74.58
2022-10-11T09:39:15.606Z,75.19
2022-10-11T09:41:50.510Z,74.85
2022-10-11T09:44:24.288Z,75.83
2022-10-11T09:46:55.502Z,76.08
2022-10-11T09:49:28.886Z,76.24
2022-10-11T09:52:01.864Z,73.40
2022-10-11T09:54:41.475Z,75.87
2022-10-11T09:57:21.492Z,75.01
2022-10-11T10:00:01.373Z,75.62
2022-10-11T10:02:46.992Z,74.51
2022-10-11T10:05:21.097Z,74.99
2022-10-11T10:08:23.053Z,72.52
2022-10-11T10:11:05.399Z,72.96
2022-10-11T10:13:44.389Z,73.61
2022-10-11T10:16:25.885Z,75.12
2022-10-11T10:18:56.857Z,70.33
2022-10-11T10:21:29.556Z,71.74
2022-10-11T10:24:03.142Z,73.44
2022-10-11T10:26:32.245Z,73.51
2022-10-11T10:29:05.092Z,70.21
2022-10-11T10:32:09.269Z,72.37
2022-10-11T10:34:31.261Z,71.55
2022-10-11T10:37:04.954Z,70.45
2022-10-11T10:39:42.079Z,71.67
2022-10-11T10:42:16.427Z,71.32
2022-10-11T10:44:46.119Z,70.78
2022-10-11T10:47:22.584Z,70.18
2022-10-11T10:49:59.485Z,70.52
2022-10-11T10:52:53.029Z,68.71
2022-10-11T10:55:30.198Z,71.43
2022-10-11T10:58:07.334Z,71.38
2022-10-11T11:00:41.433Z,69.02
2022-10-11T11:03:18.305Z,68.91
2022-10-11T11:05:52.843Z,72.72
2022-10-11T11:08:31.674Z,71.28
2022-10-11T11:11:08.856Z,66.64
2022-10-11T11:13:46.895Z,71.67
2022-10-11T11:16:21.249Z,71.06
2022-10-11T11:18:58.591Z,69.09
2022-10-11T11:21:42.381Z,69.47
2022-10-11T11:24:19.560Z,68.87
2022-10-11T11:26:57.384Z,69.28
2022-10-11T11:29:41.179Z,68.49
2022-10-11T11:32:18.666Z,69.35
2022-10-11T11:34:51.054Z,67.08
2022-10-11T11:37:26.508Z,67.06
2022-10-11T11:39:58.727Z,70.30
2022-10-11T11:42:35.411Z,67.03
2022-10-11T11:45:07.077Z,68.71
2022-10-11T11:47:39.196Z,70.75
2022-10-11T11:50:22.647Z,67.49
2022-10-11T11:52:55.348Z,67.71
2022-10-11T11:55:32.447Z,67.57
2022-10-11T11:58:17.893Z,69.58
2022-10-11T12:00:54.728Z,67.98
2022-10-11T12:03:26.622Z,66.37
2022-10-11T12:06:18.889Z,66.52
2022-10-11T12:08:49.685Z,68.23
2022-10-11T12:11:22.974Z,64.76
2022-10-11T12:13:54.196Z,66.53
2022-10-11T12:16:24.126Z,64.78
2022-10-11T12:19:00.951Z,65.40
2022-10-11T12:21:33.079Z,66.27
2022-10-11T12:24:10.274Z,65.29
2022-10-11T12:26:46.638Z,66.45
2022-10-11T12:29:44.746Z,89.19
2022-10-11T12:32:49.433Z,87.77
2022-10-11T12:35:51.634Z,98.89
2022-10-11T12:38:23.810Z,101.53
2022-10-11T12:40:54.669Z,103.74
2022-10-11T12:43:32.295Z,103.55
2022-10-11T12:46:33.516Z,106.45
2022-10-11T12:49:17.718Z,109.10
2022-10-11T12:51:53.779Z,109.46
2022-10-11T12:54:37.563Z,110.03
2022-10-11T12:57:32.642Z,110.31
2022-10-11T13:00:18.954Z,110.65
2022-10-11T13:02:49.063Z,115.69
2022-10-11T13:05:24.299Z,114.80
2022-10-11T13:07:53.748Z,117.04
2022-10-11T13:10:27.518Z,116.99
2022-10-11T13:12:59.623Z,115.65
2022-10-11T13:15:29.694Z,115.60
2022-10-11T13:18:01.510Z,117.54
2022-10-11T13:20:37.671Z,117.29
2022-10-11T13:23:23.116Z,116.38
2022-10-11T13:25:52.103Z,116.24
2022-10-11T13:28:21.596Z,116.40
2022-10-11T13:30:52.335Z,115.89
2022-10-11T13:33:26.207Z,116.89
2022-10-11T13:35:58.902Z,117.12
2022-10-11T13:38:30.676Z,116.44
2022-10-11T13:41:01.044Z,116.97
2022-10-11T13:43:31.072Z,114.54
2022-10-11T13:46:01.709Z,111.49
2022-10-11T13:48:32.080Z,111.39
2022-10-11T13:51:10.486Z,105.65
2022-10-11T13:53:38.748Z,108.74
2022-10-11T13:56:09.498Z,107.39
2022-10-11T13:58:45.189Z,102.92
2022-10-11T14:01:22.924Z,107.66
2022-10-11T14:03:56.696Z,111.00
2022-10-11T14:06:39.649Z,110.99
2022-10-11T14:09:15.616Z,106.86
2022-10-11T14:11:43.877Z,107.45
2022-10-11T14:14:45.800Z,102.80
2022-10-11T14:17:17.653Z,105.85
2022-10-11T14:19:47.487Z,110.81
2022-10-11T14:22:18.843Z,107.77
2022-10-11T14:24:49.124Z,112.93
2022-10-11T14:27:21.424Z,112.56
2022-10-11T14:30:20.363Z,115.03
2022-10-11T14:32:38.803Z,110.03
2022-10-11T14:35:07.775Z,111.79
2022-10-11T14:37:41.999Z,114.14
2022-10-11T14:40:14.384Z,113.61
2022-10-11T14:42:42.637Z,115.07
2022-10-11T14:45:11.492Z,113.32
2022-10-11T14:47:42.998Z,113.84
2022-10-11T14:50:28.940Z,117.41
2022-10-11T14:52:59.053Z,116.03
2022-10-11T14:55:27.514Z,113.03
2022-10-11T14:57:56.575Z,116.00
2022-10-11T15:00:26.711Z,117.07
2022-10-11T15:02:55.808Z,114.54
2022-10-11T15:05:29.901Z,115.08
2022-10-11T15:08:03.684Z,116.56
2022-10-11T15:10:36.607Z,115.72
2022-10-11T15:13:05.206Z,116.80
2022-10-11T15:15:36.260Z,115.54
2022-10-11T15:18:06.651Z,116.66
2022-10-11T15:20:37.485Z,118.12
2022-10-11T15:23:10.881Z,113.46
2022-10-11T15:25:42.975Z,115.89
2022-10-11T15:28:21.359Z,116.39
2022-10-11T15:30:49.586Z,114.32
2022-10-11T15:33:17.886Z,117.46
2022-10-11T15:35:46.128Z,117.43
2022-10-11T15:38:18.679Z,117.27
2022-10-11T15:40:48.608Z,116.39
2022-10-11T15:43:22.019Z,116.83
2022-10-11T15:45:53.324Z,116.59
2022-10-11T15:48:23.565Z,115.54
2022-10-11T15:50:52.182Z,113.52
2022-10-11T15:53:24.763Z,116.54
2022-10-11T15:55:54.536Z,117.74
2022-10-11T15:58:24.707Z,117.16
2022-10-11T16:00:55.778Z,116.67
2022-10-11T16:03:26.438Z,111.48
2022-10-11T16:05:55.513Z,116.02
2022-10-11T16:08:25.531Z,117.60
2022-10-11T16:10:54.048Z,116.40
2022-10-11T16:13:22.531Z,115.95
2022-10-11T16:15:51.009Z,118.38
2022-10-11T16:18:22.188Z,113.64
2022-10-11T16:20:52.542Z,117.25
2022-10-11T16:23:21.913Z,116.28
2022-10-11T16:25:59.714Z,115.46
2022-10-11T16:28:29.003Z,116.92
2022-10-11T16:30:57.700Z,116.75
2022-10-11T16:33:26.135Z,115.93
2022-10-11T16:36:14.599Z,114.31
2022-10-11T16:38:42.888Z,116.24
2022-10-11T16:41:12.444Z,113.13
2022-10-11T16:43:40.996Z,107.18
2022-10-11T16:46:09.524Z,113.27
2022-10-11T16:48:37.883Z,108.59
2022-10-11T16:51:07.630Z,110.86
2022-10-11T16:53:36.217Z,100.64
2022-10-11T16:56:06.897Z,108.97
2022-10-11T16:58:37.609Z,109.11
2022-10-11T17:01:12.499Z,104.08
2022-10-11T17:03:40.783Z,100.68
2022-10-11T17:06:09.530Z,98.16
2022-10-11T17:08:40.289Z,98.43
2022-10-11T17:11:08.607Z,93.21
2022-10-11T17:13:40.742Z,90.89
2022-10-11T17:16:09.605Z,93.27
2022-10-11T17:18:38.345Z,87.99
2022-10-11T17:21:09.237Z,87.09
2022-10-11T17:23:37.571Z,82.29
2022-10-11T17:26:11.169Z,81.14
2022-10-11T17:28:41.400Z,80.29
2022-10-11T17:31:10.324Z,79.82
2022-10-11T17:33:40.412Z,79.73
2022-10-11T17:36:17.759Z,79.59
2022-10-11T17:38:46.065Z,79.51
2022-10-11T17:41:14.564Z,79.34
2022-10-11T17:43:44.703Z,79.45
2022-10-11T17:46:14.419Z,79.40
2022-10-11T17:48:44.614Z,79.40
2022-10-11T17:51:16.136Z,79.50
2022-10-11T17:53:45.206Z,79.45
2022-10-11T17:56:17.970Z,79.59
2022-10-11T17:58:48.923Z,79.71
2022-10-11T18:01:19.468Z,79.76
2022-10-11T18:03:52.696Z,79.72
2022-10-11T18:06:20.911Z,79.83
2022-10-11T18:08:49.287Z,79.81
2022-10-11T18:11:19.363Z,79.94
2022-10-11T18:13:51.193Z,79.98
2022-10-11T18:16:22.176Z,80.04
2022-10-11T18:18:51.161Z,80.05
2022-10-11T18:21:19.717Z,80.14
2022-10-11T18:23:47.982Z,80.18
2022-10-11T18:26:18.315Z,80.26
2022-10-11T18:28:47.886Z,80.20
2022-10-11T18:31:19.722Z,80.30
2022-10-11T18:33:50.778Z,80.32
2022-10-11T18:36:21.395Z,80.46
2022-10-11T18:38:53.240Z,80.49
2022-10-11T18:41:23.463Z,80.64
2022-10-11T18:43:53.251Z,80.73
2022-10-11T18:46:23.648Z,80.74
2022-10-11T18:48:53.792Z,80.74
2022-10-11T18:51:23.897Z,80.85
2022-10-11T18:53:52.301Z,80.78
2022-10-11T18:56:22.092Z,80.90
2022-10-11T18:58:51.913Z,81.04
2022-10-11T19:01:23.284Z,81.15
2022-10-11T19:03:53.722Z,81.30
2022-10-11T19:06:23.868Z,81.37
2022-10-11T19:08:54.696Z,81.38
2022-10-11T19:11:25.427Z,81.49
2022-10-11T19:13:57.801Z,81.59
2022-10-11T19:16:29.532Z,81.53
2022-10-11T19:18:58.860Z,81.62
2022-10-11T19:21:27.663Z,81.55
2022-10-11T19:23:57.219Z,81.39
2022-10-11T19:26:28.809Z,81.44
2022-10-11T19:28:59.775Z,81.65
2022-10-11T19:31:30.354Z,81.61
2022-10-11T19:33:59.333Z,81.63
2022-10-11T19:36:30.430Z,81.62
2022-10-11T19:39:00.927Z,81.70
2022-10-11T19:41:30.069Z,81.52
2022-10-11T19:43:59.105Z,81.64
2022-10-11T19:49:20.474Z,81.81
2022-10-11T19:51:48.724Z,81.88
2022-10-11T19:54:17.609Z,81.91
2022-10-11T19:56:46.142Z,81.94
2022-10-11T19:59:14.968Z,81.94
2022-10-11T20:01:48.108Z,82.10
2022-10-11T20:04:47.141Z,82.15
2022-10-11T20:07:08.220Z,82.13
2022-10-11T20:09:36.672Z,82.10
2022-10-11T20:12:04.973Z,82.22
2022-10-11T20:14:33.115Z,82.30
2022-10-11T20:17:02.752Z,82.33
2022-10-11T20:19:31.233Z,82.44
2022-10-11T20:22:01.050Z,82.51
2022-10-11T20:24:33.491Z,82.52
2022-10-11T20:27:04.529Z,82.47
2022-10-11T20:29:33.030Z,82.51
2022-10-11T20:32:02.534Z,82.58
2022-10-11T20:34:30.805Z,82.51
2022-10-11T20:36:59.375Z,82.55
2022-10-11T20:39:27.867Z,82.66
2022-10-11T20:41:56.001Z,82.62
2022-10-11T20:44:24.312Z,82.62
2022-10-11T20:46:52.519Z,82.78
2022-10-11T20:49:22.583Z,82.79
2022-10-11T20:51:51.259Z,82.75
2022-10-11T20:54:19.538Z,82.72
2022-10-11T20:56:47.795Z,82.74
2022-10-11T20:59:16.092Z,82.81
2022-10-11T21:01:44.451Z,82.91
2022-10-11T21:04:18.895Z,82.92
2022-10-11T21:06:49.132Z,82.91
2022-10-11T21:09:17.574Z,82.99
2022-10-11T21:11:45.778Z,82.91
2022-10-11T21:14:14.035Z,82.98
2022-10-11T21:16:42.407Z,82.99
2022-10-11T21:19:15.157Z,82.96
2022-10-11T21:21:45.024Z,83.08
2022-10-11T21:24:16.005Z,83.11
2022-10-11T21:26:44.213Z,82.99
2022-10-11T21:29:12.414Z,83.03
2022-10-11T21:31:41.622Z,83.12
2022-10-11T21:34:09.915Z,83.16
2022-10-11T21:36:38.220Z,83.13
2022-10-11T21:39:06.744Z,83.22
2022-10-11T21:41:36.320Z,83.29
2022-10-11T21:44:05.439Z,83.26
2022-10-11T21:49:22.239Z,83.20
2022-10-11T21:51:50.546Z,83.17
2022-10-11T21:54:18.826Z,83.22
2022-10-11T21:56:48.665Z,83.21
2022-10-11T21:59:17.068Z,83.18
2022-10-11T22:01:45.595Z,83.34
2022-10-11T22:04:14.124Z,83.27
2022-10-11T22:06:42.353Z,83.27
2022-10-11T22:09:10.840Z,83.32
2022-10-11T22:11:39.163Z,83.40
2022-10-11T22:14:08.753Z,83.46
2022-10-11T22:16:37.072Z,83.40
2022-10-11T22:19:05.379Z,83.38
2022-10-11T22:21:33.557Z,83.40
2022-10-11T22:24:01.685Z,83.41
2022-10-11T22:26:31.843Z,83.57
2022-10-11T22:29:01.379Z,83.56
2022-10-11T22:31:31.197Z,83.52
2022-10-11T22:34:01.544Z,83.45
2022-10-11T22:36:31.001Z,83.41
2022-10-11T22:38:59.237Z,83.38
2022-10-11T22:41:28.655Z,83.41
2022-10-11T22:43:56.871Z,83.41
2022-10-11T22:46:25.091Z,83.49
2022-10-11T22:48:54.758Z,83.49
2022-10-11T22:51:22.989Z,83.53
2022-10-11T22:53:51.216Z,83.62
2022-10-11T22:56:19.470Z,83.59
2022-10-11T22:58:47.747Z,83.58
2022-10-11T23:01:17.133Z,83.63
2022-10-11T23:03:49.503Z,83.66
2022-10-11T23:06:19.112Z,83.69
2022-10-11T23:08:47.528Z,83.81
2022-10-11T23:11:15.763Z,83.75
2022-10-11T23:13:43.941Z,83.78
2022-10-11T23:16:15.340Z,83.81
2022-10-11T23:18:43.635Z,83.79
2022-10-11T23:21:13.187Z,83.65
2022-10-11T23:23:42.754Z,83.53
2022-10-11T23:26:13.186Z,83.63
2022-10-11T23:28:41.671Z,83.71
2022-10-11T23:31:11.275Z,83.39
2022-10-11T23:33:40.061Z,83.10
2022-10-11T23:36:15.828Z,82.81
2022-10-11T23:38:45.954Z,82.89
2022-10-11T23:41:14.405Z,83.16
2022-10-11T23:43:42.760Z,83.43
2022-10-11T23:46:11.059Z,83.40
2022-10-11T23:48:39.254Z,83.43
2022-10-11T23:51:07.999Z,83.45
2022-10-11T23:53:36.949Z,83.39
2022-10-11T23:56:07.421Z,83.52
2022-10-11T23:58:35.858Z,83.55
